createdAt,value
2018-01-26T00:01:09.549Z,3.87
2018-01-26T00:03:37.461Z,3.93
2018-01-26T00:06:06.233Z,3.30
2018-01-26T00:08:34.089Z,3.50
2018-01-26T00:11:02.090Z,3.63
2018-01-26T00:13:29.905Z,3.17
2018-01-26T00:15:58.743Z,3.13
2018-01-26T00:18:26.536Z,3.40
2018-01-26T00:20:54.442Z,2.80
2018-01-26T00:23:23.137Z,3.03
2018-01-26T00:25:56.077Z,3.10
2018-01-26T00:28:25.494Z,3.20
2018-01-26T00:30:53.301Z,3.70
2018-01-26T00:33:21.294Z,3.57
2018-01-26T00:35:52.596Z,3.73
2018-01-26T00:38:21.717Z,3.20
2018-01-26T00:40:49.506Z,3.37
2018-01-26T00:43:17.577Z,3.67
2018-01-26T00:45:46.822Z,3.10
2018-01-26T00:48:14.600Z,3.30
2018-01-26T00:50:42.419Z,3.20
2018-01-26T00:53:10.065Z,3.00
2018-01-26T00:55:37.971Z,2.60
2018-01-26T00:58:05.850Z,2.73
2018-01-26T01:00:33.586Z,2.80
2018-01-26T01:03:01.312Z,2.93
2018-01-26T01:05:29.151Z,2.90
2018-01-26T01:07:56.957Z,2.93
2018-01-26T01:10:26.564Z,2.70
2018-01-26T01:12:54.347Z,3.73
2018-01-26T01:15:23.658Z,4.00
2018-01-26T01:17:51.342Z,3.23
2018-01-26T01:20:19.137Z,2.87
2018-01-26T01:22:46.982Z,2.60
2018-01-26T01:25:14.701Z,3.00
2018-01-26T01:27:42.870Z,3.63
2018-01-26T01:30:11.055Z,3.10
2018-01-26T01:32:38.909Z,2.60
2018-01-26T01:35:07.551Z,2.93
2018-01-26T01:37:35.875Z,2.73
2018-01-26T01:40:03.715Z,2.33
2018-01-26T01:42:31.982Z,2.93
2018-01-26T01:45:00.662Z,2.43
2018-01-26T01:47:28.484Z,2.10
2018-01-26T01:49:57.377Z,1.97
2018-01-26T01:52:26.050Z,2.43
2018-01-26T01:54:53.888Z,2.63
2018-01-26T01:57:26.057Z,2.10
2018-01-26T01:59:53.879Z,3.10
2018-01-26T02:02:22.358Z,2.77
2018-01-26T02:04:50.672Z,3.10
2018-01-26T02:07:18.598Z,3.00
2018-01-26T02:09:47.255Z,2.87
2018-01-26T02:12:15.040Z,3.20
2018-01-26T02:14:43.639Z,3.37
2018-01-26T02:17:11.414Z,3.07
2018-01-26T02:19:40.183Z,3.07
2018-01-26T02:22:08.055Z,2.63
2018-01-26T02:24:55.309Z,3.00
2018-01-26T02:27:23.240Z,2.47
2018-01-26T02:29:52.005Z,3.60
2018-01-26T02:32:20.064Z,3.07
2018-01-26T02:34:47.865Z,3.83
2018-01-26T02:37:15.680Z,4.07
2018-01-26T02:39:43.556Z,4.40
2018-01-26T02:42:11.510Z,5.17
2018-01-26T02:44:39.287Z,4.90
2018-01-26T02:47:07.103Z,5.13
2018-01-26T02:49:34.910Z,6.30
2018-01-26T02:52:03.064Z,5.63
2018-01-26T02:54:30.810Z,6.33
2018-01-26T02:56:59.613Z,5.43
2018-01-26T02:59:27.436Z,4.87
2018-01-26T03:01:58.540Z,6.40
2018-01-26T03:04:30.830Z,9.30
2018-01-26T03:06:58.521Z,6.47
2018-01-26T03:09:26.610Z,3.37
2018-01-26T03:11:54.321Z,3.80
2018-01-26T03:14:22.119Z,6.23
2018-01-26T03:16:49.949Z,7.53
2018-01-26T03:19:17.962Z,10.27
2018-01-26T03:21:46.536Z,12.80
2018-01-26T03:24:15.708Z,11.73
2018-01-26T03:26:43.916Z,9.90
2018-01-26T03:29:11.739Z,14.93
2018-01-26T03:31:41.098Z,12.13
2018-01-26T03:34:09.262Z,6.80
2018-01-26T03:36:37.169Z,13.60
2018-01-26T03:39:05.226Z,9.93
2018-01-26T03:41:33.962Z,3.93
2018-01-26T03:44:02.075Z,5.03
2018-01-26T03:46:29.877Z,6.30
2018-01-26T03:49:00.831Z,4.83
2018-01-26T03:51:30.754Z,8.07
2018-01-26T03:53:59.443Z,6.37
2018-01-26T03:56:27.370Z,5.90
2018-01-26T03:58:56.088Z,4.07
2018-01-26T04:01:24.242Z,4.03
2018-01-26T04:03:52.011Z,3.90
2018-01-26T04:06:21.390Z,3.90
2018-01-26T04:08:51.254Z,4.10
2018-01-26T04:11:19.097Z,4.20
2018-01-26T04:13:46.753Z,4.23
2018-01-26T04:16:16.492Z,5.13
2018-01-26T04:18:45.542Z,5.20
2018-01-26T04:21:14.141Z,5.10
2018-01-26T04:23:43.109Z,5.47
2018-01-26T04:26:11.786Z,5.53
2018-01-26T04:28:39.536Z,5.00
2018-01-26T04:31:07.441Z,5.00
2018-01-26T04:33:42.785Z,4.80
2018-01-26T04:36:10.832Z,4.77
2018-01-26T04:38:40.604Z,4.37
2018-01-26T04:41:08.456Z,4.50
2018-01-26T04:43:40.506Z,4.43
2018-01-26T04:46:08.792Z,3.70
2018-01-26T04:48:40.250Z,3.90
2018-01-26T04:51:10.893Z,4.17
2018-01-26T04:53:41.548Z,4.53
2018-01-26T04:56:09.406Z,4.50
2018-01-26T04:58:37.127Z,4.20
2018-01-26T05:01:04.872Z,4.90
2018-01-26T05:03:32.647Z,4.97
2018-01-26T05:06:00.373Z,4.97
2018-01-26T05:08:28.019Z,6.47
2018-01-26T05:10:56.313Z,6.63
2018-01-26T05:13:24.005Z,5.03
2018-01-26T05:15:52.775Z,4.70
2018-01-26T05:18:20.472Z,4.40
2018-01-26T05:20:48.131Z,5.47
2018-01-26T05:23:16.709Z,5.47
2018-01-26T05:25:44.926Z,5.57
2018-01-26T05:28:12.662Z,5.77
2018-01-26T05:30:40.320Z,6.03
2018-01-26T05:33:08.046Z,6.70
2018-01-26T05:35:36.839Z,5.17
2018-01-26T05:38:04.623Z,6.77
2018-01-26T05:40:32.327Z,6.63
2018-01-26T05:43:01.506Z,6.47
2018-01-26T05:45:29.082Z,7.40
2018-01-26T05:47:56.786Z,6.30
2018-01-26T05:50:25.617Z,7.83
2018-01-26T05:52:53.405Z,6.03
2018-01-26T05:55:21.212Z,5.93
2018-01-26T05:57:49.630Z,5.87
2018-01-26T06:00:17.462Z,6.67
2018-01-26T06:02:45.118Z,5.93
2018-01-26T06:05:13.438Z,7.10
2018-01-26T06:07:41.062Z,6.03
2018-01-26T06:10:08.813Z,6.90
2018-01-26T06:12:36.652Z,6.63
2018-01-26T06:15:04.867Z,7.53
2018-01-26T06:17:32.753Z,6.63
2018-01-26T06:20:00.961Z,6.53
2018-01-26T06:22:29.505Z,5.27
2018-01-26T06:24:57.266Z,6.43
2018-01-26T06:27:25.194Z,6.57
2018-01-26T06:29:53.000Z,6.80
2018-01-26T06:32:20.694Z,7.43
2018-01-26T06:34:49.355Z,8.57
2018-01-26T06:37:17.119Z,8.73
2018-01-26T06:39:44.976Z,8.50
2018-01-26T06:42:14.258Z,9.73
2018-01-26T06:44:42.373Z,10.17
2018-01-26T06:47:10.053Z,8.70
2018-01-26T06:49:39.046Z,8.77
2018-01-26T06:52:06.818Z,9.27
2018-01-26T06:54:34.621Z,9.97
2018-01-26T06:57:02.463Z,10.23
2018-01-26T06:59:30.508Z,11.47
2018-01-26T07:01:59.285Z,11.67
2018-01-26T07:04:27.095Z,11.53
2018-01-26T07:06:55.199Z,13.30
2018-01-26T07:09:22.921Z,13.70
2018-01-26T07:11:50.722Z,12.27
2018-01-26T07:14:18.340Z,10.13
2018-01-26T07:16:46.022Z,9.07
2018-01-26T07:19:14.705Z,8.13
2018-01-26T07:21:42.323Z,7.70
2018-01-26T07:24:10.155Z,6.03
2018-01-26T07:26:37.893Z,7.30
2018-01-26T07:29:05.577Z,6.80
2018-01-26T07:31:33.212Z,6.73
2018-01-26T07:34:00.934Z,6.73
2018-01-26T07:36:28.536Z,6.53
2018-01-26T07:38:56.157Z,7.50
2018-01-26T07:41:23.891Z,8.00
2018-01-26T07:43:53.363Z,7.43
2018-01-26T07:46:21.114Z,8.23
2018-01-26T07:48:49.280Z,9.17
2018-01-26T07:51:17.054Z,11.93
2018-01-26T07:53:45.231Z,13.40
2018-01-26T07:56:13.042Z,14.23
2018-01-26T07:58:40.653Z,15.90
2018-01-26T08:01:08.906Z,16.00
2018-01-26T08:03:36.937Z,13.37
2018-01-26T08:06:05.667Z,12.50
2018-01-26T08:08:37.577Z,11.97
2018-01-26T08:11:05.694Z,12.87
2018-01-26T08:13:33.404Z,9.53
2018-01-26T08:16:01.035Z,10.53
2018-01-26T08:18:28.692Z,12.73
2018-01-26T08:20:56.327Z,12.30
2018-01-26T08:23:24.048Z,11.60
2018-01-26T08:25:51.825Z,11.00
2018-01-26T08:28:19.520Z,11.97
2018-01-26T08:30:47.252Z,9.87
2018-01-26T08:33:14.985Z,9.17
2018-01-26T08:35:42.644Z,8.90
2018-01-26T08:38:11.054Z,9.13
2018-01-26T08:40:38.858Z,8.53
2018-01-26T08:43:06.563Z,8.27
2018-01-26T08:45:36.054Z,7.80
2018-01-26T08:48:03.818Z,7.47
2018-01-26T08:50:32.900Z,8.40
2018-01-26T08:53:01.038Z,6.73
2018-01-26T08:55:29.569Z,8.53
2018-01-26T08:57:57.145Z,7.90
2018-01-26T09:00:24.796Z,7.37
2018-01-26T09:02:52.434Z,7.53
2018-01-26T09:05:20.053Z,7.63
2018-01-26T09:07:47.746Z,7.07
2018-01-26T09:10:15.483Z,7.57
2018-01-26T09:12:43.480Z,7.77
2018-01-26T09:15:11.191Z,8.63
2018-01-26T09:17:38.989Z,7.93
2018-01-26T09:20:06.689Z,7.50
2018-01-26T09:22:34.456Z,8.27
2018-01-26T09:25:02.257Z,7.20
2018-01-26T09:27:29.972Z,8.13
2018-01-26T09:29:57.656Z,7.50
2018-01-26T09:32:25.472Z,7.90
2018-01-26T09:34:53.506Z,7.47
2018-01-26T09:37:21.198Z,7.87
2018-01-26T09:39:49.509Z,8.40
2018-01-26T09:42:17.225Z,8.47
2018-01-26T09:44:44.949Z,8.63
2018-01-26T09:47:13.234Z,8.10
2018-01-26T09:49:40.846Z,7.53
2018-01-26T09:52:08.444Z,8.17
2018-01-26T09:54:37.733Z,8.70
2018-01-26T09:57:06.082Z,7.63
2018-01-26T09:59:34.090Z,8.23
2018-01-26T10:02:02.799Z,7.70
2018-01-26T10:04:31.010Z,8.27
2018-01-26T10:06:59.125Z,8.03
2018-01-26T10:09:26.718Z,8.07
2018-01-26T10:11:54.609Z,9.40
2018-01-26T10:14:22.336Z,8.30
2018-01-26T10:16:50.175Z,8.90
2018-01-26T10:19:18.359Z,8.00
2018-01-26T10:21:46.010Z,8.27
2018-01-26T10:24:13.787Z,8.83
2018-01-26T10:26:41.658Z,8.93
2018-01-26T10:29:09.933Z,9.10
2018-01-26T10:31:37.706Z,8.40
2018-01-26T10:34:06.252Z,9.00
2018-01-26T10:36:33.954Z,9.10
2018-01-26T10:39:02.090Z,8.33
2018-01-26T10:41:29.801Z,9.53
2018-01-26T10:43:59.351Z,9.07
2018-01-26T10:46:27.183Z,8.90
2018-01-26T10:48:55.039Z,9.07
2018-01-26T10:51:22.678Z,7.93
2018-01-26T10:53:50.571Z,7.93
2018-01-26T10:56:18.588Z,7.80
2018-01-26T10:58:46.156Z,7.73
2018-01-26T11:01:13.921Z,7.83
2018-01-26T11:03:41.545Z,8.23
2018-01-26T11:06:09.477Z,7.53
2018-01-26T11:08:38.062Z,7.70
2018-01-26T11:11:05.814Z,7.43
2018-01-26T11:13:34.816Z,7.50
2018-01-26T11:16:04.123Z,6.90
2018-01-26T11:18:31.851Z,7.70
2018-01-26T11:20:59.560Z,7.13
2018-01-26T11:23:28.154Z,6.73
2018-01-26T11:25:58.434Z,6.50
2018-01-26T11:28:26.106Z,7.40
2018-01-26T11:30:54.602Z,6.30
2018-01-26T11:33:23.395Z,6.40
2018-01-26T11:35:51.516Z,7.67
2018-01-26T11:38:19.237Z,6.60
2018-01-26T11:40:47.019Z,6.90
2018-01-26T11:43:14.860Z,6.07
2018-01-26T11:45:42.683Z,7.37
2018-01-26T11:48:10.382Z,5.77
2018-01-26T11:50:38.109Z,5.57
2018-01-26T11:53:05.819Z,5.80
2018-01-26T11:55:34.371Z,6.00
2018-01-26T11:58:02.029Z,6.90
2018-01-26T12:00:29.655Z,6.87
2018-01-26T12:02:57.349Z,6.93
2018-01-26T12:05:25.040Z,5.67
2018-01-26T12:07:52.832Z,5.20
2018-01-26T12:10:20.482Z,5.53
2018-01-26T12:12:48.228Z,5.40
2018-01-26T12:15:16.024Z,5.00
2018-01-26T12:17:43.713Z,6.00
2018-01-26T12:20:11.994Z,6.07
2018-01-26T12:22:39.863Z,5.63
2018-01-26T12:25:07.978Z,5.57
2018-01-26T12:27:35.642Z,4.83
2018-01-26T12:30:04.021Z,5.83
2018-01-26T12:32:31.707Z,5.60
2018-01-26T12:34:59.369Z,5.50
2018-01-26T12:37:27.007Z,6.47
2018-01-26T12:39:54.783Z,5.20
2018-01-26T12:42:28.749Z,5.83
2018-01-26T12:44:56.825Z,5.57
2018-01-26T12:47:24.485Z,5.77
2018-01-26T12:49:52.108Z,6.30
2018-01-26T12:52:19.838Z,6.10
2018-01-26T12:54:47.541Z,5.87
2018-01-26T12:57:15.598Z,6.23
2018-01-26T12:59:43.309Z,6.10
2018-01-26T13:02:11.009Z,5.13
2018-01-26T13:04:39.005Z,5.20
2018-01-26T13:07:08.192Z,5.23
2018-01-26T13:09:35.786Z,5.20
2018-01-26T13:12:03.958Z,5.43
2018-01-26T13:14:31.516Z,4.93
2018-01-26T13:16:59.192Z,5.63
2018-01-26T13:19:26.871Z,5.27
2018-01-26T13:21:54.549Z,5.30
2018-01-26T13:24:22.243Z,5.03
2018-01-26T13:26:49.992Z,5.37
2018-01-26T13:29:17.656Z,4.80
2018-01-26T13:31:45.312Z,4.00
2018-01-26T13:34:12.976Z,3.80
2018-01-26T13:36:40.650Z,4.37
2018-01-26T13:39:08.547Z,4.90
2018-01-26T13:41:37.142Z,5.27
2018-01-26T13:44:04.923Z,5.50
2018-01-26T13:46:32.673Z,5.97
2018-01-26T13:49:00.711Z,5.63
2018-01-26T13:51:28.404Z,5.27
2018-01-26T13:53:56.145Z,5.73
2018-01-26T13:56:23.889Z,5.47
2018-01-26T13:58:52.020Z,4.90
2018-01-26T14:01:19.611Z,7.30
2018-01-26T14:03:47.311Z,5.30
2018-01-26T14:06:14.860Z,5.57
2018-01-26T14:08:42.785Z,5.20
2018-01-26T14:11:10.546Z,5.47
2018-01-26T14:13:38.229Z,4.80
2018-01-26T14:16:06.298Z,4.63
2018-01-26T14:18:34.538Z,5.27
2018-01-26T14:21:02.012Z,4.90
2018-01-26T14:23:29.641Z,5.03
2018-01-26T14:25:57.743Z,4.57
2018-01-26T14:28:26.659Z,5.77
2018-01-26T14:30:54.286Z,4.90
2018-01-26T14:33:21.987Z,5.63
2018-01-26T14:35:49.674Z,4.70
2018-01-26T14:38:17.351Z,4.03
2018-01-26T14:40:45.072Z,4.30
2018-01-26T14:43:12.786Z,5.00
2018-01-26T14:45:40.450Z,4.37
2018-01-26T14:48:08.071Z,5.47
2018-01-26T14:50:35.700Z,5.30
2018-01-26T14:53:03.327Z,5.67
2018-01-26T14:55:30.992Z,6.47
2018-01-26T14:57:58.554Z,5.27
2018-01-26T15:00:26.275Z,5.00
2018-01-26T15:02:53.944Z,5.63
2018-01-26T15:05:21.551Z,4.80
2018-01-26T15:07:49.316Z,5.03
2018-01-26T15:10:17.341Z,4.37
2018-01-26T15:12:47.871Z,4.30
2018-01-26T15:15:15.693Z,5.17
2018-01-26T15:17:43.355Z,4.43
2018-01-26T15:20:11.428Z,5.33
2018-01-26T15:22:39.076Z,5.00
2018-01-26T15:25:07.179Z,4.70
2018-01-26T15:27:34.865Z,3.70
2018-01-26T15:30:02.452Z,5.20
2018-01-26T15:32:30.140Z,3.90
2018-01-26T15:34:57.786Z,3.80
2018-01-26T15:37:25.624Z,3.80
2018-01-26T15:39:53.274Z,3.37
2018-01-26T15:42:20.971Z,3.53
2018-01-26T15:44:49.043Z,3.60
2018-01-26T15:47:17.051Z,3.77
2018-01-26T15:49:44.602Z,5.17
2018-01-26T15:52:12.488Z,3.33
2018-01-26T15:54:40.122Z,3.87
2018-01-26T15:57:07.705Z,3.33
2018-01-26T15:59:35.343Z,1.93
2018-01-26T16:02:03.093Z,2.10
2018-01-26T16:04:30.741Z,1.93
2018-01-26T16:06:58.786Z,1.80
2018-01-26T16:09:26.418Z,1.63
2018-01-26T16:11:54.921Z,1.80
2018-01-26T16:14:22.567Z,2.00
2018-01-26T16:16:50.213Z,1.50
2018-01-26T16:19:17.878Z,1.70
2018-01-26T16:21:45.506Z,2.07
2018-01-26T16:24:13.141Z,2.10
2018-01-26T16:26:42.009Z,2.10
2018-01-26T16:29:09.678Z,1.53
2018-01-26T16:31:37.334Z,1.80
2018-01-26T16:34:05.004Z,1.87
2018-01-26T16:36:32.562Z,1.50
2018-01-26T16:39:00.155Z,1.20
2018-01-26T16:41:27.700Z,1.47
2018-01-26T16:43:55.781Z,1.60
2018-01-26T16:46:23.448Z,1.83
2018-01-26T16:48:51.067Z,1.27
2018-01-26T16:51:18.863Z,1.23
2018-01-26T16:53:47.462Z,1.60
2018-01-26T16:56:15.140Z,1.47
2018-01-26T16:58:42.762Z,1.50
2018-01-26T17:01:10.778Z,2.20
2018-01-26T17:03:38.425Z,2.00
2018-01-26T17:06:06.209Z,1.67
2018-01-26T17:08:34.661Z,2.10
2018-01-26T17:11:02.395Z,2.00
2018-01-26T17:13:30.297Z,2.07
2018-01-26T17:15:58.041Z,1.90
2018-01-26T17:18:26.486Z,2.77
2018-01-26T17:20:54.230Z,3.33
2018-01-26T17:23:23.160Z,3.30
2018-01-26T17:25:51.258Z,4.00
2018-01-26T17:28:19.017Z,1.83
2018-01-26T17:30:46.652Z,1.70
2018-01-26T17:33:14.312Z,1.80
2018-01-26T17:35:41.904Z,2.10
2018-01-26T17:38:09.571Z,1.90
2018-01-26T17:40:37.708Z,1.90
2018-01-26T17:43:05.590Z,3.23
2018-01-26T17:45:33.277Z,2.60
2018-01-26T17:48:01.444Z,3.10
2018-01-26T17:50:29.121Z,2.50
2018-01-26T17:52:56.774Z,3.00
2018-01-26T17:55:24.494Z,2.77
2018-01-26T17:57:52.201Z,3.00
2018-01-26T18:00:19.993Z,2.83
2018-01-26T18:02:47.698Z,3.40
2018-01-26T18:05:15.330Z,3.20
2018-01-26T18:07:43.388Z,3.63
2018-01-26T18:10:11.091Z,3.37
2018-01-26T18:12:38.755Z,3.63
2018-01-26T18:15:06.457Z,3.03
2018-01-26T18:17:34.093Z,3.23
2018-01-26T18:20:02.237Z,2.70
2018-01-26T18:22:29.899Z,3.13
2018-01-26T18:24:57.673Z,3.67
2018-01-26T18:27:25.273Z,3.00
2018-01-26T18:29:53.866Z,3.13
2018-01-26T18:32:21.496Z,3.83
2018-01-26T18:34:50.565Z,9.77
2018-01-26T18:37:19.448Z,3.43
2018-01-26T18:39:47.243Z,3.67
2018-01-26T18:42:14.980Z,3.30
2018-01-26T18:44:42.703Z,2.57
2018-01-26T18:47:11.036Z,2.40
2018-01-26T18:49:39.639Z,2.60
2018-01-26T18:52:07.431Z,2.90
2018-01-26T18:54:35.195Z,2.27
2018-01-26T18:57:03.270Z,1.93
2018-01-26T18:59:32.851Z,2.00
2018-01-26T19:02:04.798Z,2.00
2018-01-26T19:04:32.640Z,2.10
2018-01-26T19:07:00.584Z,2.03
2018-01-26T19:09:28.341Z,2.30
2018-01-26T19:11:56.176Z,2.33
2018-01-26T19:14:23.966Z,2.17
2018-01-26T19:16:51.708Z,2.60
2018-01-26T19:19:20.299Z,2.50
2018-01-26T19:21:47.917Z,2.40
2018-01-26T19:24:15.715Z,3.20
2018-01-26T19:26:44.597Z,3.30
2018-01-26T19:29:12.429Z,3.30
2018-01-26T19:31:40.612Z,3.60
2018-01-26T19:34:09.286Z,3.57
2018-01-26T19:36:36.975Z,3.80
2018-01-26T19:41:58.357Z,5.43
2018-01-26T19:44:26.158Z,5.80
2018-01-26T19:46:55.632Z,5.67
2018-01-26T19:49:23.559Z,5.10
2018-01-26T19:51:51.274Z,5.20
2018-01-26T19:54:19.022Z,4.63
2018-01-26T19:56:46.820Z,5.10
2018-01-26T19:59:14.532Z,16.60
2018-01-26T20:01:42.215Z,16.73
2018-01-26T20:04:12.252Z,5.60
2018-01-26T20:06:57.451Z,5.77
2018-01-26T20:09:26.506Z,5.40
2018-01-26T20:11:59.900Z,5.40
2018-01-26T20:14:27.759Z,4.97
2018-01-26T20:16:56.800Z,5.60
2018-01-26T20:19:26.165Z,5.60
2018-01-26T20:21:53.941Z,5.47
2018-01-26T20:24:22.522Z,5.80
2018-01-26T20:26:54.951Z,5.77
2018-01-26T20:29:26.282Z,5.40
2018-01-26T20:32:04.805Z,5.83
2018-01-26T20:34:39.403Z,6.03
2018-01-26T20:37:09.222Z,6.17
2018-01-26T20:39:37.035Z,6.83
2018-01-26T20:42:04.930Z,6.53
2018-01-26T20:44:33.639Z,7.60
2018-01-26T20:47:03.391Z,7.67
2018-01-26T20:49:31.090Z,7.23
2018-01-26T20:51:59.366Z,7.00
2018-01-26T20:54:27.106Z,6.73
2018-01-26T20:56:54.901Z,5.63
2018-01-26T20:59:22.799Z,6.33
2018-01-26T21:01:50.630Z,6.53
2018-01-26T21:04:18.445Z,6.43
2018-01-26T21:06:46.189Z,6.77
2018-01-26T21:09:14.068Z,6.97
2018-01-26T21:11:43.252Z,6.80
2018-01-26T21:14:10.996Z,6.93
2018-01-26T21:16:41.657Z,6.40
2018-01-26T21:19:09.904Z,6.63
2018-01-26T21:21:37.781Z,7.47
2018-01-26T21:24:05.852Z,6.47
2018-01-26T21:26:34.503Z,6.53
2018-01-26T21:29:02.599Z,6.67
2018-01-26T21:31:31.006Z,6.30
2018-01-26T21:33:58.819Z,6.87
2018-01-26T21:36:26.634Z,6.73
2018-01-26T21:38:54.586Z,6.87
2018-01-26T21:41:22.511Z,6.67
2018-01-26T21:43:52.011Z,6.57
2018-01-26T21:46:20.144Z,6.60
2018-01-26T21:48:47.885Z,6.03
2018-01-26T21:51:17.036Z,6.87
2018-01-26T21:53:45.823Z,7.43
2018-01-26T21:56:13.660Z,7.43
2018-01-26T21:58:41.354Z,6.23
2018-01-26T22:01:09.966Z,6.23
2018-01-26T22:03:39.712Z,6.40
2018-01-26T22:06:12.864Z,7.70
2018-01-26T22:08:41.713Z,7.17
2018-01-26T22:11:10.172Z,7.03
2018-01-26T22:13:40.461Z,6.70
2018-01-26T22:16:09.181Z,6.23
2018-01-26T22:18:37.728Z,6.17
2018-01-26T22:21:07.076Z,6.23
2018-01-26T22:23:38.769Z,7.27
2018-01-26T22:26:08.443Z,6.23
2018-01-26T22:28:38.953Z,6.43
2018-01-26T22:31:13.739Z,6.37
2018-01-26T22:33:41.659Z,6.47
2018-01-26T22:36:11.583Z,7.13
2018-01-26T22:38:39.670Z,6.43
2018-01-26T22:41:13.553Z,7.00
2018-01-26T22:43:42.061Z,7.10
2018-01-26T22:46:10.350Z,8.33
2018-01-26T22:48:38.495Z,6.90
2018-01-26T22:51:06.426Z,7.10
2018-01-26T22:53:34.283Z,6.70
2018-01-26T22:56:06.900Z,7.47
2018-01-26T22:58:36.363Z,7.47
2018-01-26T23:03:38.862Z,7.27
2018-01-26T23:06:13.257Z,7.60
2018-01-26T23:08:45.850Z,6.87
2018-01-26T23:11:13.967Z,7.50
2018-01-26T23:13:42.004Z,7.67
2018-01-26T23:16:09.597Z,9.20
2018-01-26T23:18:38.021Z,8.40
2018-01-26T23:21:06.957Z,8.93
2018-01-26T23:23:36.770Z,8.60
2018-01-26T23:26:04.779Z,7.87
2018-01-26T23:28:33.848Z,9.30
2018-01-26T23:31:01.893Z,9.37
2018-01-26T23:33:29.718Z,9.30
2018-01-26T23:35:58.159Z,8.30
2018-01-26T23:38:27.131Z,8.73
2018-01-26T23:40:55.341Z,8.40
2018-01-26T23:43:23.788Z,8.90
2018-01-26T23:45:52.220Z,9.00
2018-01-26T23:48:20.125Z,8.63
2018-01-26T23:50:48.350Z,9.43
2018-01-26T23:53:20.437Z,9.97
2018-01-26T23:55:48.276Z,11.20
2018-01-26T23:58:17.267Z,9.13
